createdAt,value
2019-05-21T00:00:44.143Z,18.75
2019-05-21T00:03:15.806Z,18.20
2019-05-21T00:05:47.457Z,17.67
2019-05-21T00:08:19.346Z,17.92
2019-05-21T00:13:20.807Z,16.85
2019-05-21T00:15:52.359Z,16.80
2019-05-21T00:18:23.619Z,17.60
2019-05-21T00:20:55.189Z,15.35
2019-05-21T00:23:26.209Z,16.15
2019-05-21T00:25:57.852Z,15.83
2019-05-21T00:28:31.077Z,15.80
2019-05-21T00:31:04.758Z,15.70
2019-05-21T00:33:38.346Z,14.83
2019-05-21T00:36:11.955Z,15.88
2019-05-21T00:38:45.570Z,16.35
2019-05-21T00:41:19.159Z,16.37
2019-05-21T00:43:52.643Z,14.60
2019-05-21T00:46:24.470Z,16.77
2019-05-21T00:48:56.385Z,16.27
2019-05-21T00:51:27.835Z,15.18
2019-05-21T00:53:59.513Z,15.10
2019-05-21T00:59:00.317Z,15.03
2019-05-21T01:01:31.187Z,13.72
2019-05-21T01:04:02.414Z,14.00
2019-05-21T01:06:33.973Z,13.03
2019-05-21T01:09:06.982Z,12.98
2019-05-21T01:11:38.259Z,13.58
2019-05-21T01:14:09.404Z,12.85
2019-05-21T01:16:40.634Z,14.30
2019-05-21T01:19:11.970Z,11.75
2019-05-21T01:21:43.617Z,13.08
2019-05-21T01:24:15.128Z,13.20
2019-05-21T01:26:46.381Z,14.43
2019-05-21T01:29:18.085Z,13.08
2019-05-21T01:31:49.839Z,13.43
2019-05-21T01:34:21.261Z,13.32
2019-05-21T01:39:23.885Z,13.83
2019-05-21T01:41:55.123Z,15.20
2019-05-21T01:44:26.378Z,12.53
2019-05-21T01:46:57.936Z,13.40
2019-05-21T01:49:29.159Z,14.00
2019-05-21T01:52:00.427Z,14.53
2019-05-21T01:54:32.296Z,14.68
2019-05-21T01:57:03.602Z,13.58
2019-05-21T02:02:05.037Z,13.43
2019-05-21T02:04:36.788Z,12.85
2019-05-21T02:07:08.067Z,12.47
2019-05-21T02:12:12.178Z,13.40
2019-05-21T02:14:43.828Z,13.18
2019-05-21T02:17:15.668Z,12.70
2019-05-21T02:19:47.438Z,12.53
2019-05-21T02:22:19.187Z,12.23
2019-05-21T02:24:50.655Z,12.73
2019-05-21T02:27:21.755Z,13.40
2019-05-21T02:29:52.626Z,13.32
2019-05-21T02:32:24.059Z,12.37
2019-05-21T02:34:55.762Z,11.97
2019-05-21T02:37:26.999Z,12.03
2019-05-21T02:42:28.393Z,12.18
2019-05-21T02:45:01.124Z,11.80
2019-05-21T02:50:02.500Z,11.73
2019-05-21T02:52:34.167Z,11.57
2019-05-21T02:55:06.744Z,12.00
2019-05-21T02:57:39.480Z,13.03
2019-05-21T03:00:13.801Z,13.53
2019-05-21T03:02:45.818Z,13.72
2019-05-21T03:05:17.649Z,12.63
2019-05-21T03:07:48.786Z,11.33
2019-05-21T03:10:19.842Z,11.90
2019-05-21T03:12:51.466Z,12.13
2019-05-21T03:15:23.290Z,12.33
2019-05-21T03:17:55.136Z,13.00
2019-05-21T03:20:26.848Z,12.43
2019-05-21T03:22:58.659Z,12.10
2019-05-21T03:25:30.097Z,11.50
2019-05-21T03:28:01.338Z,12.43
2019-05-21T03:33:03.032Z,11.38
2019-05-21T03:35:34.498Z,11.83
2019-05-21T03:38:06.447Z,11.30
2019-05-21T03:40:37.914Z,11.22
2019-05-21T03:43:09.072Z,12.15
2019-05-21T03:48:11.336Z,11.63
2019-05-21T03:50:43.042Z,12.18
2019-05-21T03:53:14.313Z,11.12
2019-05-21T03:58:16.116Z,11.25
2019-05-21T04:00:47.540Z,11.15
2019-05-21T04:03:19.399Z,11.85
2019-05-21T04:05:50.737Z,10.60
2019-05-21T04:08:22.908Z,11.35
2019-05-21T04:10:53.857Z,11.63
2019-05-21T04:13:24.774Z,11.97
2019-05-21T04:15:57.383Z,11.48
2019-05-21T04:18:30.106Z,11.10
2019-05-21T04:21:02.041Z,12.15
2019-05-21T04:23:34.459Z,11.28
2019-05-21T04:26:06.105Z,12.47
2019-05-21T04:28:37.871Z,13.10
2019-05-21T04:31:09.442Z,12.40
2019-05-21T04:33:41.450Z,11.68
2019-05-21T04:36:13.143Z,13.20
2019-05-21T04:38:44.992Z,12.00
2019-05-21T04:41:16.274Z,13.08
2019-05-21T04:43:47.732Z,11.97
2019-05-21T04:48:50.209Z,11.78
2019-05-21T04:51:21.278Z,12.13
2019-05-21T04:53:52.986Z,12.10
2019-05-21T04:56:24.829Z,12.05
2019-05-21T04:58:56.508Z,12.23
2019-05-21T05:01:28.372Z,12.80
2019-05-21T05:04:00.355Z,12.35
2019-05-21T05:06:32.178Z,12.05
2019-05-21T05:09:03.763Z,12.40
2019-05-21T05:11:35.724Z,12.98
2019-05-21T05:14:07.794Z,11.83
2019-05-21T05:16:39.504Z,12.65
2019-05-21T05:19:11.200Z,12.47
2019-05-21T05:21:42.480Z,12.35
2019-05-21T05:24:14.185Z,12.75
2019-05-21T05:26:45.425Z,11.90
2019-05-21T05:29:17.121Z,12.55
2019-05-21T05:31:48.810Z,12.68
2019-05-21T05:34:20.423Z,12.58
2019-05-21T05:36:52.332Z,11.70
2019-05-21T05:39:24.139Z,11.85
2019-05-21T05:41:56.253Z,12.53
2019-05-21T05:44:27.693Z,11.88
2019-05-21T05:46:59.381Z,12.35
2019-05-21T05:49:32.509Z,13.13
2019-05-21T05:52:04.129Z,12.60
2019-05-21T05:54:35.418Z,12.53
2019-05-21T05:59:38.203Z,12.60
2019-05-21T06:02:09.454Z,11.53
2019-05-21T06:04:40.996Z,11.93
2019-05-21T06:07:12.876Z,12.37
2019-05-21T06:09:44.469Z,12.23
2019-05-21T06:12:16.374Z,12.30
2019-05-21T06:14:47.627Z,11.48
2019-05-21T06:17:18.667Z,11.28
2019-05-21T06:19:50.391Z,12.15
2019-05-21T06:22:25.030Z,11.40
2019-05-21T06:24:57.632Z,12.15
2019-05-21T06:27:32.228Z,11.68
2019-05-21T06:30:07.576Z,10.60
2019-05-21T06:32:41.769Z,10.58
2019-05-21T06:35:14.134Z,11.05
2019-05-21T06:37:45.995Z,11.18
2019-05-21T06:40:19.310Z,11.12
2019-05-21T06:42:50.501Z,11.55
2019-05-21T06:45:23.079Z,11.50
2019-05-21T06:47:54.662Z,11.10
2019-05-21T06:50:26.637Z,11.43
2019-05-21T06:52:58.610Z,11.40
2019-05-21T06:55:29.970Z,11.83
2019-05-21T07:00:32.387Z,11.00
2019-05-21T07:03:04.120Z,10.20
2019-05-21T07:05:35.889Z,9.50
2019-05-21T07:08:07.937Z,9.68
2019-05-21T07:10:39.851Z,11.05
2019-05-21T07:13:10.976Z,11.33
2019-05-21T07:15:42.952Z,9.40
2019-05-21T07:18:14.547Z,8.85
2019-05-21T07:20:46.429Z,9.33
2019-05-21T07:23:17.746Z,8.13
2019-05-21T07:28:20.353Z,8.93
2019-05-21T07:30:51.890Z,8.58
2019-05-21T07:33:23.226Z,8.33
2019-05-21T07:38:25.495Z,8.18
2019-05-21T07:40:57.037Z,8.95
2019-05-21T07:43:28.507Z,8.43
2019-05-21T07:46:00.454Z,9.40
2019-05-21T07:48:31.813Z,9.18
2019-05-21T07:53:33.768Z,9.35
2019-05-21T07:56:05.848Z,9.53
2019-05-21T07:58:37.414Z,8.68
2019-05-21T08:01:08.681Z,9.50
2019-05-21T08:03:40.514Z,8.25
2019-05-21T08:06:14.966Z,8.95
2019-05-21T08:36:30.642Z,21.57
2019-05-21T08:39:02.492Z,18.85
2019-05-21T08:41:33.962Z,10.63
2019-05-21T08:44:05.291Z,11.38
2019-05-21T08:46:36.684Z,10.50
2019-05-21T08:51:38.125Z,10.93
2019-05-21T08:54:09.465Z,10.15
2019-05-21T08:56:41.339Z,9.88
2019-05-21T08:59:13.110Z,10.58
2019-05-21T09:01:44.665Z,11.03
2019-05-21T09:04:16.726Z,10.90
2019-05-21T09:06:48.083Z,10.72
2019-05-21T09:09:19.989Z,11.40
2019-05-21T09:11:51.992Z,12.23
2019-05-21T09:14:23.598Z,14.18
2019-05-21T09:16:55.426Z,15.00
2019-05-21T09:19:26.684Z,18.23
2019-05-21T09:21:59.021Z,20.05
2019-05-21T09:24:30.972Z,21.20
2019-05-21T09:27:02.384Z,22.22
2019-05-21T09:29:33.902Z,19.50
2019-05-21T09:34:48.143Z,13.48
2019-05-21T09:37:19.063Z,13.38
2019-05-21T09:39:41.758Z,14.60
2019-05-21T09:42:13.630Z,9.68
2019-05-21T09:44:45.565Z,7.72
2019-05-21T09:47:17.454Z,8.50
2019-05-21T09:49:49.269Z,8.15
2019-05-21T09:52:20.555Z,8.20
2019-05-21T09:54:52.555Z,9.30
2019-05-21T09:57:25.504Z,9.15
2019-05-21T09:59:57.883Z,9.20
2019-05-21T10:02:30.641Z,10.30
2019-05-21T10:05:02.133Z,9.55
2019-05-21T10:07:39.773Z,9.25
2019-05-21T10:10:08.362Z,10.38
2019-05-21T10:12:40.278Z,11.78
2019-05-21T10:17:42.887Z,10.48
2019-05-21T10:20:14.953Z,11.30
2019-05-21T10:22:46.729Z,12.13
2019-05-21T10:25:18.747Z,11.05
2019-05-21T10:30:21.046Z,11.75
2019-05-21T10:32:52.212Z,10.20
2019-05-21T10:35:24.047Z,9.63
2019-05-21T10:37:55.621Z,10.25
2019-05-21T10:40:27.920Z,12.43
2019-05-21T10:42:59.551Z,12.03
2019-05-21T10:45:31.702Z,14.75
2019-05-21T10:48:03.053Z,15.98
2019-05-21T10:50:34.911Z,17.25
2019-05-21T10:53:06.642Z,12.98
2019-05-21T10:55:37.951Z,14.00
2019-05-21T10:58:09.789Z,11.68
2019-05-21T11:00:40.961Z,11.70
2019-05-21T11:03:13.330Z,10.83
2019-05-21T11:05:46.071Z,10.40
2019-05-21T11:08:25.207Z,11.12
2019-05-21T11:10:50.103Z,11.22
2019-05-21T11:13:22.177Z,12.53
2019-05-21T11:18:24.566Z,14.25
2019-05-21T11:20:56.324Z,11.38
2019-05-21T11:23:28.097Z,26.77
2019-05-21T11:25:59.286Z,9.05
2019-05-21T11:28:30.895Z,6.43
2019-05-21T11:31:02.640Z,6.10
2019-05-21T11:33:34.397Z,9.10
2019-05-21T11:36:06.055Z,11.20
2019-05-21T11:38:40.365Z,6.30
2019-05-21T11:41:10.922Z,8.40
2019-05-21T11:43:42.662Z,6.15
2019-05-21T11:46:14.529Z,6.70
2019-05-21T11:48:45.962Z,7.28
2019-05-21T11:51:17.646Z,7.30
2019-05-21T11:53:49.390Z,7.12
2019-05-21T11:56:21.161Z,6.60
2019-05-21T11:58:52.912Z,7.62
2019-05-21T12:01:24.680Z,8.48
2019-05-21T12:03:56.449Z,9.58
2019-05-21T12:06:28.236Z,10.55
2019-05-21T12:08:59.521Z,9.98
2019-05-21T12:11:30.677Z,8.45
2019-05-21T12:14:02.252Z,8.33
2019-05-21T12:16:34.108Z,7.55
2019-05-21T12:19:08.191Z,6.85
2019-05-21T12:21:38.433Z,8.10
2019-05-21T12:24:10.200Z,7.75
2019-05-21T12:26:41.966Z,7.00
2019-05-21T12:29:13.734Z,8.30
2019-05-21T12:31:45.499Z,8.13
2019-05-21T12:34:17.343Z,7.70
2019-05-21T12:36:49.413Z,8.43
2019-05-21T12:39:20.654Z,8.45
2019-05-21T12:41:51.775Z,7.10
2019-05-21T12:44:23.240Z,6.85
2019-05-21T12:46:55.110Z,8.13
2019-05-21T12:49:26.463Z,9.50
2019-05-21T12:51:58.940Z,7.67
2019-05-21T12:54:31.059Z,8.00
2019-05-21T12:57:02.336Z,8.58
2019-05-21T12:59:34.217Z,8.20
2019-05-21T13:02:06.088Z,7.95
2019-05-21T13:04:38.043Z,8.10
2019-05-21T13:07:10.127Z,8.45
2019-05-21T13:12:11.775Z,8.43
2019-05-21T13:14:43.544Z,7.65
2019-05-21T13:17:15.309Z,7.22
2019-05-21T13:19:47.168Z,7.72
2019-05-21T13:22:18.923Z,7.95
2019-05-21T13:24:50.585Z,7.47
2019-05-21T13:27:22.450Z,8.03
2019-05-21T13:29:54.109Z,11.85
2019-05-21T13:32:25.363Z,10.43
2019-05-21T13:34:56.580Z,9.60
2019-05-21T13:37:27.703Z,9.03
2019-05-21T13:39:59.340Z,8.90
2019-05-21T13:42:30.606Z,8.43
2019-05-21T13:45:02.211Z,8.50
2019-05-21T13:47:33.959Z,8.05
2019-05-21T13:50:06.850Z,8.95
2019-05-21T13:52:38.110Z,8.80
2019-05-21T13:55:11.079Z,9.00
2019-05-21T13:57:42.844Z,9.03
2019-05-21T14:00:16.422Z,9.10
2019-05-21T14:02:48.313Z,10.28
2019-05-21T14:05:19.636Z,9.03
2019-05-21T14:07:51.421Z,8.87
2019-05-21T14:10:23.285Z,9.03
2019-05-21T14:12:56.602Z,9.48
2019-05-21T14:15:28.641Z,9.85
2019-05-21T14:18:00.613Z,9.70
2019-05-21T14:20:32.352Z,9.80
2019-05-21T14:23:03.825Z,9.50
2019-05-21T14:25:35.878Z,9.18
2019-05-21T14:28:07.234Z,9.88
2019-05-21T14:30:38.732Z,9.38
2019-05-21T14:33:10.123Z,10.25
2019-05-21T14:35:42.003Z,10.13
2019-05-21T14:38:14.117Z,8.40
2019-05-21T14:43:16.059Z,9.70
2019-05-21T14:45:47.191Z,8.58
2019-05-21T14:48:18.763Z,9.78
2019-05-21T14:50:50.493Z,9.10
2019-05-21T14:53:22.263Z,8.88
2019-05-21T14:55:53.609Z,8.53
2019-05-21T14:58:24.972Z,8.83
2019-05-21T15:00:56.823Z,9.50
2019-05-21T15:03:29.565Z,9.30
2019-05-21T15:06:01.223Z,10.25
2019-05-21T15:08:33.031Z,8.63
2019-05-21T15:11:04.254Z,9.25
2019-05-21T15:13:36.245Z,8.67
2019-05-21T15:16:08.098Z,9.65
2019-05-21T15:18:40.019Z,9.50
2019-05-21T15:21:12.909Z,9.80
2019-05-21T15:23:45.202Z,8.63
2019-05-21T15:26:17.283Z,9.65
2019-05-21T15:28:49.009Z,11.17
2019-05-21T15:31:20.242Z,12.43
2019-05-21T15:33:51.841Z,13.40
2019-05-21T15:36:23.722Z,11.10
2019-05-21T15:38:55.016Z,11.55
2019-05-21T15:41:26.350Z,12.57
2019-05-21T15:43:57.424Z,11.45
2019-05-21T15:46:46.843Z,11.48
2019-05-21T15:49:02.003Z,10.95
2019-05-21T15:51:33.452Z,11.57
2019-05-21T15:54:05.213Z,11.15
2019-05-21T15:56:36.849Z,11.00
2019-05-21T15:59:08.108Z,10.75
2019-05-21T16:01:40.763Z,10.60
2019-05-21T16:04:16.072Z,10.32
2019-05-21T16:06:45.330Z,10.30
2019-05-21T16:09:17.536Z,9.70
2019-05-21T16:11:49.269Z,9.78
2019-05-21T16:14:21.232Z,10.18
2019-05-21T16:16:52.535Z,10.98
2019-05-21T16:19:24.134Z,10.27
2019-05-21T16:21:55.894Z,10.30
2019-05-21T16:24:27.954Z,10.75
2019-05-21T16:26:59.282Z,10.03
2019-05-21T16:29:30.847Z,11.93
2019-05-21T16:32:02.725Z,13.40
2019-05-21T16:34:34.484Z,12.35
2019-05-21T16:37:06.192Z,13.03
2019-05-21T16:39:37.988Z,11.88
2019-05-21T16:42:09.783Z,16.48
2019-05-21T16:44:41.379Z,24.23
2019-05-21T16:47:12.728Z,23.05
2019-05-21T16:49:44.315Z,23.43
2019-05-21T16:52:15.559Z,19.70
2019-05-21T16:54:47.338Z,18.40
2019-05-21T16:57:18.329Z,16.02
2019-05-21T16:59:50.139Z,14.80
2019-05-21T17:02:21.389Z,14.18
2019-05-21T17:04:53.138Z,13.20
2019-05-21T17:07:24.353Z,13.10
2019-05-21T17:09:55.929Z,13.28
2019-05-21T17:12:27.549Z,13.72
2019-05-21T17:14:58.777Z,14.90
2019-05-21T17:17:30.174Z,13.93
2019-05-21T17:20:01.810Z,15.28
2019-05-21T17:22:33.920Z,13.45
2019-05-21T17:25:06.813Z,12.33
2019-05-21T17:27:38.088Z,13.38
2019-05-21T17:30:11.528Z,12.30
2019-05-21T17:32:43.410Z,11.00
2019-05-21T17:35:16.396Z,10.45
2019-05-21T17:37:48.155Z,10.88
2019-05-21T17:40:20.174Z,11.00
2019-05-21T17:42:51.984Z,10.25
2019-05-21T17:45:23.750Z,11.28
2019-05-21T17:47:55.500Z,10.30
2019-05-21T17:50:26.567Z,10.50
2019-05-21T17:52:58.218Z,9.65
2019-05-21T17:55:30.061Z,11.05
2019-05-21T17:58:01.542Z,10.88
2019-05-21T18:00:34.247Z,10.10
2019-05-21T18:03:05.963Z,10.53
2019-05-21T18:05:36.927Z,10.40
2019-05-21T18:08:08.059Z,10.55
2019-05-21T18:10:40.418Z,10.90
2019-05-21T18:13:13.402Z,10.35
2019-05-21T18:15:45.193Z,10.15
2019-05-21T18:18:17.131Z,10.32
2019-05-21T18:20:49.027Z,9.83
2019-05-21T18:23:20.543Z,11.28
2019-05-21T18:25:52.823Z,10.35
2019-05-21T18:28:24.109Z,10.00
2019-05-21T18:30:55.714Z,10.78
2019-05-21T18:33:27.430Z,13.05
2019-05-21T18:35:59.239Z,13.93
2019-05-21T18:38:30.905Z,12.10
2019-05-21T18:41:02.336Z,11.48
2019-05-21T18:43:34.212Z,13.08
2019-05-21T18:46:05.655Z,13.65
2019-05-21T18:48:37.626Z,13.65
2019-05-21T18:51:09.376Z,15.65
2019-05-21T18:53:41.002Z,14.50
2019-05-21T18:56:12.457Z,13.75
2019-05-21T18:58:44.148Z,12.03
2019-05-21T19:01:15.450Z,11.25
2019-05-21T19:03:46.505Z,11.63
2019-05-21T19:06:18.114Z,10.95
2019-05-21T19:08:50.214Z,10.45
2019-05-21T19:11:22.018Z,10.68
2019-05-21T19:13:53.779Z,10.98
2019-05-21T19:16:24.876Z,11.65
2019-05-21T19:18:56.681Z,11.38
2019-05-21T19:21:27.882Z,12.25
2019-05-21T19:23:59.502Z,11.45
2019-05-21T19:26:30.748Z,11.22
2019-05-21T19:29:02.703Z,12.45
2019-05-21T19:31:34.564Z,11.68
2019-05-21T19:34:06.628Z,13.32
2019-05-21T19:36:37.839Z,13.83
2019-05-21T19:39:09.609Z,15.08
2019-05-21T19:41:41.195Z,15.00
2019-05-21T19:44:13.051Z,15.25
2019-05-21T19:46:44.509Z,15.25
2019-05-21T19:49:16.477Z,15.28
2019-05-21T19:51:48.240Z,14.60
2019-05-21T19:54:19.656Z,13.30
2019-05-21T19:56:50.775Z,14.05
2019-05-21T19:59:22.683Z,13.22
2019-05-21T20:01:55.277Z,11.70
2019-05-21T20:04:27.743Z,12.33
2019-05-21T20:06:59.395Z,11.18
2019-05-21T20:09:31.148Z,11.97
2019-05-21T20:12:02.874Z,11.93
2019-05-21T20:14:34.069Z,11.70
2019-05-21T20:17:05.609Z,12.43
2019-05-21T20:19:36.813Z,13.40
2019-05-21T20:22:09.643Z,13.53
2019-05-21T20:24:42.154Z,13.53
2019-05-21T20:27:14.186Z,15.20
2019-05-21T20:29:45.942Z,15.30
2019-05-21T20:33:13.670Z,16.82
2019-05-21T20:35:45.892Z,17.57
2019-05-21T20:40:47.627Z,20.75
2019-05-21T20:43:19.174Z,17.20
2019-05-21T20:45:52.035Z,16.62
2019-05-21T20:48:25.079Z,15.93
2019-05-21T20:50:56.711Z,14.07
2019-05-21T20:53:28.473Z,13.83
2019-05-21T20:56:00.272Z,15.90
2019-05-21T20:58:32.334Z,14.78
2019-05-21T21:01:05.266Z,14.83
2019-05-21T21:03:37.188Z,17.20
2019-05-21T21:06:08.648Z,17.12
2019-05-21T21:08:40.290Z,17.82
2019-05-21T21:11:12.467Z,15.40
2019-05-21T21:13:43.927Z,14.03
2019-05-21T21:16:15.287Z,15.07
2019-05-21T21:18:47.021Z,15.00
2019-05-21T21:21:19.198Z,15.15
2019-05-21T21:23:52.082Z,13.88
2019-05-21T21:26:23.845Z,13.20
2019-05-21T21:28:55.612Z,12.85
2019-05-21T21:31:27.058Z,14.63
2019-05-21T21:33:58.817Z,13.77
2019-05-21T21:36:30.978Z,13.80
2019-05-21T21:39:02.519Z,14.03
2019-05-21T21:41:34.242Z,12.43
2019-05-21T21:44:05.684Z,7.45
2019-05-21T21:46:37.772Z,9.27
2019-05-21T21:49:10.420Z,12.00
2019-05-21T21:51:41.567Z,9.28
2019-05-21T21:54:13.495Z,7.62
2019-05-21T21:56:45.265Z,7.35
2019-05-21T21:59:16.586Z,8.10
2019-05-21T22:01:50.462Z,8.18
2019-05-21T22:04:24.421Z,7.55
2019-05-21T22:06:57.614Z,8.28
2019-05-21T22:09:30.671Z,9.18
2019-05-21T22:12:03.800Z,9.55
2019-05-21T22:14:49.591Z,10.48
2019-05-21T22:17:09.890Z,10.98
2019-05-21T22:19:42.677Z,12.07
2019-05-21T22:22:14.741Z,11.63
2019-05-21T22:24:46.082Z,12.40
2019-05-21T22:27:17.244Z,10.13
2019-05-21T22:29:48.692Z,9.10
2019-05-21T22:32:19.957Z,8.97
2019-05-21T22:34:51.420Z,8.53
2019-05-21T22:37:23.963Z,8.03
2019-05-21T22:39:55.609Z,8.03
2019-05-21T22:42:27.670Z,7.72
2019-05-21T22:45:07.814Z,8.33
2019-05-21T22:47:33.755Z,8.40
2019-05-21T22:50:05.928Z,8.15
2019-05-21T22:52:37.888Z,8.35
2019-05-21T22:55:10.252Z,9.18
2019-05-21T22:57:42.229Z,8.63
2019-05-21T23:00:14.304Z,8.43
2019-05-21T23:02:47.368Z,8.68
2019-05-21T23:05:18.430Z,8.78
2019-05-21T23:07:49.751Z,8.73
2019-05-21T23:10:21.985Z,8.23
2019-05-21T23:12:53.693Z,8.85
2019-05-21T23:15:25.826Z,12.68
2019-05-21T23:17:57.818Z,15.38
2019-05-21T23:20:30.671Z,17.32
2019-05-21T23:23:02.269Z,22.32
2019-05-21T23:25:34.647Z,18.57
2019-05-21T23:30:37.354Z,8.45
2019-05-21T23:33:09.931Z,10.82
2019-05-21T23:35:41.999Z,11.78
2019-05-21T23:38:14.532Z,10.38
2019-05-21T23:40:46.135Z,9.63
2019-05-21T23:43:18.806Z,10.25
2019-05-21T23:45:50.182Z,10.45
2019-05-21T23:48:22.443Z,10.87
2019-05-21T23:50:53.576Z,11.78
2019-05-21T23:53:25.223Z,9.95
2019-05-21T23:55:57.077Z,9.90
2019-05-21T23:58:28.352Z,12.53
